Terminal Aerodrome Forecast
Issued by NWS

Current Version | Previous Version | Text Only | Print | Product List | Glossary On
Versions: 1 2 3 4 5 6 7 8 9 10 11 12
000
FTUS42 TJSJ 020500
TAFJMZ
TAF
TJMZ 020532Z 0206/0306 08005KT P6SM SCT040 SCT050
     FM021500 27007KT P6SM SCT030
     FM021700 24014KT P6SM VCTS SCT025CB
     FM022200 06006KT P6SM SCT025 SCT040
      AMD NOT SKED TIL 021100=

USA.gov is the U.S. government's official web portal to all federal, state and local government web resources and services.